sensor_id;sensor_type;location;lat;lon;timestamp;P1;P2;P0
26185;PMS7003;20067;48.764;9.176;2023-12-22T00:02:08;7.00;7.00;1.00
26185;PMS7003;20067;48.764;9.176;2023-12-22T00:04:33;9.50;7.00;0.75
26185;PMS7003;20067;48.764;9.176;2023-12-22T00:06:59;7.00;6.00;0.00
26185;PMS7003;20067;48.764;9.176;2023-12-22T00:09:24;7.00;7.00;1.00
26185;PMS7003;20067;48.764;9.176;2023-12-22T00:11:50;8.00;8.00;3.00
26185;PMS7003;20067;48.764;9.176;2023-12-22T00:14:16;8.00;8.00;2.50
26185;PMS7003;20067;48.764;9.176;2023-12-22T00:16:41;15.00;14.00;6.75
26185;PMS7003;20067;48.764;9.176;2023-12-22T00:19:07;13.75;13.75;7.50
26185;PMS7003;20067;48.764;9.176;2023-12-22T00:21:34;15.25;14.50;7.50
26185;PMS7003;20067;48.764;9.176;2023-12-22T00:23:59;18.50;18.50;9.50
26185;PMS7003;20067;48.764;9.176;2023-12-22T00:26:25;16.50;16.50;8.00
26185;PMS7003;20067;48.764;9.176;2023-12-22T00:28:50;19.00;19.00;10.50
26185;PMS7003;20067;48.764;9.176;2023-12-22T00:31:16;26.50;24.50;15.00
26185;PMS7003;20067;48.764;9.176;2023-12-22T00:33:42;20.75;20.75;12.00
26185;PMS7003;20067;48.764;9.176;2023-12-22T00:36:07;23.75;22.00;12.50
26185;PMS7003;20067;48.764;9.176;2023-12-22T00:38:33;15.00;13.25;7.00
26185;PMS7003;20067;48.764;9.176;2023-12-22T00:40:59;10.00;10.00;4.00
26185;PMS7003;20067;48.764;9.176;2023-12-22T00:43:24;7.50;7.50;1.50
26185;PMS7003;20067;48.764;9.176;2023-12-22T00:45:50;8.00;7.00;0.50
26185;PMS7003;20067;48.764;9.176;2023-12-22T00:48:15;12.25;11.00;3.00
26185;PMS7003;20067;48.764;9.176;2023-12-22T00:50:41;12.00;11.50;5.00
26185;PMS7003;20067;48.764;9.176;2023-12-22T00:53:07;20.75;20.75;13.25
26185;PMS7003;20067;48.764;9.176;2023-12-22T00:55:32;22.00;22.00;16.50
26185;PMS7003;20067;48.764;9.176;2023-12-22T00:57:58;22.00;21.50;16.00
26185;PMS7003;20067;48.764;9.176;2023-12-22T01:00:23;31.25;29.25;22.25
26185;PMS7003;20067;48.764;9.176;2023-12-22T01:02:49;28.50;28.50;22.00
26185;PMS7003;20067;48.764;9.176;2023-12-22T01:05:15;25.50;25.50;19.00
26185;PMS7003;20067;48.764;9.176;2023-12-22T01:07:41;31.25;30.50;24.50
26185;PMS7003;20067;48.764;9.176;2023-12-22T01:10:06;26.25;26.00;19.25
26185;PMS7003;20067;48.764;9.176;2023-12-22T01:12:32;21.50;21.50;14.50
26185;PMS7003;20067;48.764;9.176;2023-12-22T01:14:58;19.50;19.50;13.75
26185;PMS7003;20067;48.764;9.176;2023-12-22T01:17:23;17.00;17.00;11.00
26185;PMS7003;20067;48.764;9.176;2023-12-22T01:19:49;14.50;14.50;8.50
26185;PMS7003;20067;48.764;9.176;2023-12-22T01:22:16;18.50;16.50;8.50
26185;PMS7003;20067;48.764;9.176;2023-12-22T01:24:41;12.75;12.75;7.00
26185;PMS7003;20067;48.764;9.176;2023-12-22T01:27:11;14.25;14.25;7.25
26185;PMS7003;20067;48.764;9.176;2023-12-22T01:29:37;14.50;12.00;6.00
26185;PMS7003;20067;48.764;9.176;2023-12-22T01:32:03;12.25;12.25;6.00
26185;PMS7003;20067;48.764;9.176;2023-12-22T01:34:29;8.50;8.50;3.00
26185;PMS7003;20067;48.764;9.176;2023-12-22T01:36:55;8.50;8.50;3.00
26185;PMS7003;20067;48.764;9.176;2023-12-22T01:39:20;8.00;8.00;3.00
26185;PMS7003;20067;48.764;9.176;2023-12-22T01:41:46;10.00;10.00;3.00
26185;PMS7003;20067;48.764;9.176;2023-12-22T01:44:12;9.00;8.00;1.00
26185;PMS7003;20067;48.764;9.176;2023-12-22T01:46:37;6.00;6.00;0.50
26185;PMS7003;20067;48.764;9.176;2023-12-22T01:49:04;6.25;5.00;0.00
26185;PMS7003;20067;48.764;9.176;2023-12-22T01:51:32;5.25;5.00;0.00
26185;PMS7003;20067;48.764;9.176;2023-12-22T01:53:59;7.25;7.25;0.25
26185;PMS7003;20067;48.764;9.176;2023-12-22T01:56:25;6.00;6.00;0.00
26185;PMS7003;20067;48.764;9.176;2023-12-22T01:58:55;6.00;6.00;1.00
26185;PMS7003;20067;48.764;9.176;2023-12-22T02:01:25;5.00;5.00;0.00
26185;PMS7003;20067;48.764;9.176;2023-12-22T02:03:52;8.00;7.75;0.75
26185;PMS7003;20067;48.764;9.176;2023-12-22T02:06:18;7.00;7.00;0.00
26185;PMS7003;20067;48.764;9.176;2023-12-22T02:08:48;5.00;5.00;0.00
26185;PMS7003;20067;48.764;9.176;2023-12-22T02:11:14;5.25;5.25;0.00
26185;PMS7003;20067;48.764;9.176;2023-12-22T02:13:40;6.00;5.00;0.00
26185;PMS7003;20067;48.764;9.176;2023-12-22T02:16:15;5.25;5.25;0.00
26185;PMS7003;20067;48.764;9.176;2023-12-22T02:18:54;5.00;5.00;0.00
26185;PMS7003;20067;48.764;9.176;2023-12-22T02:21:21;3.50;3.50;0.00
26185;PMS7003;20067;48.764;9.176;2023-12-22T02:23:47;6.00;6.00;1.00
26185;PMS7003;20067;48.764;9.176;2023-12-22T02:26:16;6.00;5.00;1.00
26185;PMS7003;20067;48.764;9.176;2023-12-22T02:28:49;5.00;5.00;1.00
26185;PMS7003;20067;48.764;9.176;2023-12-22T02:31:17;5.75;5.75;1.00
26185;PMS7003;20067;48.764;9.176;2023-12-22T02:33:52;5.50;5.00;1.00
26185;PMS7003;20067;48.764;9.176;2023-12-22T02:36:20;5.00;5.00;1.00
26185;PMS7003;20067;48.764;9.176;2023-12-22T02:38:47;5.00;5.00;0.75
26185;PMS7003;20067;48.764;9.176;2023-12-22T02:41:13;5.75;5.75;0.75
26185;PMS7003;20067;48.764;9.176;2023-12-22T02:43:40;5.50;5.50;1.00
26185;PMS7003;20067;48.764;9.176;2023-12-22T02:46:12;5.00;5.00;1.00
26185;PMS7003;20067;48.764;9.176;2023-12-22T02:48:39;6.00;4.50;0.00
26185;PMS7003;20067;48.764;9.176;2023-12-22T02:51:05;5.00;5.00;1.00
26185;PMS7003;20067;48.764;9.176;2023-12-22T02:53:31;5.00;5.00;0.00
26185;PMS7003;20067;48.764;9.176;2023-12-22T02:55:56;6.00;6.00;1.00
26185;PMS7003;20067;48.764;9.176;2023-12-22T02:58:22;7.00;6.00;0.50
26185;PMS7003;20067;48.764;9.176;2023-12-22T03:00:48;5.00;5.00;1.00
26185;PMS7003;20067;48.764;9.176;2023-12-22T03:03:13;5.00;5.00;0.00
26185;PMS7003;20067;48.764;9.176;2023-12-22T03:05:39;5.00;5.00;1.00
26185;PMS7003;20067;48.764;9.176;2023-12-22T03:08:05;5.00;5.00;0.00
26185;PMS7003;20067;48.764;9.176;2023-12-22T03:10:31;5.00;5.00;1.00
26185;PMS7003;20067;48.764;9.176;2023-12-22T03:12:56;6.00;5.75;1.00
26185;PMS7003;20067;48.764;9.176;2023-12-22T03:15:22;6.00;6.00;1.00
26185;PMS7003;20067;48.764;9.176;2023-12-22T03:17:47;7.50;7.50;0.75
26185;PMS7003;20067;48.764;9.176;2023-12-22T03:20:13;4.50;4.50;0.50
26185;PMS7003;20067;48.764;9.176;2023-12-22T03:22:39;7.25;6.00;0.00
26185;PMS7003;20067;48.764;9.176;2023-12-22T03:25:04;5.00;5.00;0.00
26185;PMS7003;20067;48.764;9.176;2023-12-22T03:27:30;5.75;5.75;0.00
26185;PMS7003;20067;48.764;9.176;2023-12-22T03:29:56;7.00;7.00;0.00
26185;PMS7003;20067;48.764;9.176;2023-12-22T03:32:21;9.00;8.00;0.00
26185;PMS7003;20067;48.764;9.176;2023-12-22T03:34:47;6.50;5.50;0.00
26185;PMS7003;20067;48.764;9.176;2023-12-22T03:37:13;7.00;7.00;0.00
26185;PMS7003;20067;48.764;9.176;2023-12-22T03:39:38;8.00;6.25;0.00
26185;PMS7003;20067;48.764;9.176;2023-12-22T03:42:04;5.75;5.75;0.00
26185;PMS7003;20067;48.764;9.176;2023-12-22T03:44:30;5.00;5.00;0.00
26185;PMS7003;20067;48.764;9.176;2023-12-22T03:46:55;7.25;5.25;1.00
26185;PMS7003;20067;48.764;9.176;2023-12-22T03:49:21;5.50;5.50;0.00
26185;PMS7003;20067;48.764;9.176;2023-12-22T03:51:47;5.50;5.00;0.00
26185;PMS7003;20067;48.764;9.176;2023-12-22T03:54:12;6.50;6.50;0.00
26185;PMS7003;20067;48.764;9.176;2023-12-22T03:56:40;5.75;5.00;0.00
26185;PMS7003;20067;48.764;9.176;2023-12-22T03:59:06;4.50;4.50;0.00
26185;PMS7003;20067;48.764;9.176;2023-12-22T04:01:31;3.00;3.00;0.00
26185;PMS7003;20067;48.764;9.176;2023-12-22T04:03:57;5.25;5.25;1.00
26185;PMS7003;20067;48.764;9.176;2023-12-22T04:06:23;5.00;5.00;1.00
26185;PMS7003;20067;48.764;9.176;2023-12-22T04:08:48;5.75;5.00;1.00
26185;PMS7003;20067;48.764;9.176;2023-12-22T04:11:14;5.00;5.00;0.75
26185;PMS7003;20067;48.764;9.176;2023-12-22T04:13:39;7.00;6.00;1.00
26185;PMS7003;20067;48.764;9.176;2023-12-22T04:16:05;5.25;5.00;0.00
26185;PMS7003;20067;48.764;9.176;2023-12-22T04:18:31;5.50;5.25;0.00
26185;PMS7003;20067;48.764;9.176;2023-12-22T04:20:57;5.00;5.00;0.00
26185;PMS7003;20067;48.764;9.176;2023-12-22T04:23:23;8.00;6.00;1.00
26185;PMS7003;20067;48.764;9.176;2023-12-22T04:25:48;8.25;5.75;1.00
26185;PMS7003;20067;48.764;9.176;2023-12-22T04:28:14;8.00;8.00;1.50
26185;PMS7003;20067;48.764;9.176;2023-12-22T04:30:40;3.00;3.00;0.00
26185;PMS7003;20067;48.764;9.176;2023-12-22T04:33:05;5.50;5.50;0.00
26185;PMS7003;20067;48.764;9.176;2023-12-22T04:35:31;5.00;5.00;0.00
26185;PMS7003;20067;48.764;9.176;2023-12-22T04:37:56;5.00;4.00;0.00
26185;PMS7003;20067;48.764;9.176;2023-12-22T04:40:22;8.00;8.00;2.50
26185;PMS7003;20067;48.764;9.176;2023-12-22T04:42:48;3.50;3.50;0.00
26185;PMS7003;20067;48.764;9.176;2023-12-22T04:45:14;5.75;5.00;0.25
26185;PMS7003;20067;48.764;9.176;2023-12-22T04:47:39;5.00;5.00;0.00
26185;PMS7003;20067;48.764;9.176;2023-12-22T04:50:05;5.00;5.00;0.00
26185;PMS7003;20067;48.764;9.176;2023-12-22T04:52:31;5.00;5.00;0.00
26185;PMS7003;20067;48.764;9.176;2023-12-22T04:54:57;5.25;5.00;0.50
26185;PMS7003;20067;48.764;9.176;2023-12-22T04:57:22;5.25;5.25;1.00
26185;PMS7003;20067;48.764;9.176;2023-12-22T04:59:48;6.00;6.00;1.00
26185;PMS7003;20067;48.764;9.176;2023-12-22T05:02:13;5.75;5.75;1.00
26185;PMS7003;20067;48.764;9.176;2023-12-22T05:04:39;5.25;5.25;1.00
26185;PMS7003;20067;48.764;9.176;2023-12-22T05:07:04;5.25;5.25;1.00
26185;PMS7003;20067;48.764;9.176;2023-12-22T05:09:32;5.00;5.00;1.00
26185;PMS7003;20067;48.764;9.176;2023-12-22T05:12:00;5.75;5.75;1.00
26185;PMS7003;20067;48.764;9.176;2023-12-22T05:14:26;5.50;5.50;0.75
26185;PMS7003;20067;48.764;9.176;2023-12-22T05:16:52;5.00;4.50;0.00
26185;PMS7003;20067;48.764;9.176;2023-12-22T05:19:20;11.00;8.50;1.00
26185;PMS7003;20067;48.764;9.176;2023-12-22T05:21:46;5.75;5.25;0.00
26185;PMS7003;20067;48.764;9.176;2023-12-22T05:24:11;7.25;7.25;0.00
26185;PMS7003;20067;48.764;9.176;2023-12-22T05:26:37;8.00;6.00;0.00
26185;PMS7003;20067;48.764;9.176;2023-12-22T05:29:03;5.25;5.00;0.00
26185;PMS7003;20067;48.764;9.176;2023-12-22T05:31:28;7.50;7.50;1.00
26185;PMS7003;20067;48.764;9.176;2023-12-22T05:33:56;6.00;6.00;1.00
26185;PMS7003;20067;48.764;9.176;2023-12-22T05:36:21;7.50;7.50;1.00
26185;PMS7003;20067;48.764;9.176;2023-12-22T05:38:47;6.00;6.00;0.00
26185;PMS7003;20067;48.764;9.176;2023-12-22T05:41:13;9.00;8.00;1.00
26185;PMS7003;20067;48.764;9.176;2023-12-22T05:43:38;8.50;7.75;0.00
26185;PMS7003;20067;48.764;9.176;2023-12-22T05:46:04;7.75;7.75;0.00
26185;PMS7003;20067;48.764;9.176;2023-12-22T05:48:29;13.75;9.50;0.00
26185;PMS7003;20067;48.764;9.176;2023-12-22T05:50:58;11.00;10.00;0.25
26185;PMS7003;20067;48.764;9.176;2023-12-22T05:53:24;10.00;8.50;1.00
26185;PMS7003;20067;48.764;9.176;2023-12-22T05:55:49;7.50;7.50;0.00
26185;PMS7003;20067;48.764;9.176;2023-12-22T05:58:15;6.00;6.00;1.00
26185;PMS7003;20067;48.764;9.176;2023-12-22T06:00:40;5.50;5.50;0.75
26185;PMS7003;20067;48.764;9.176;2023-12-22T06:03:06;5.00;5.00;0.00
26185;PMS7003;20067;48.764;9.176;2023-12-22T06:05:32;5.25;5.25;1.00
26185;PMS7003;20067;48.764;9.176;2023-12-22T06:07:57;5.50;5.50;1.00
26185;PMS7003;20067;48.764;9.176;2023-12-22T06:10:23;8.00;8.00;1.00
26185;PMS7003;20067;48.764;9.176;2023-12-22T06:12:48;5.50;5.50;1.00
26185;PMS7003;20067;48.764;9.176;2023-12-22T06:15:14;7.50;7.50;0.00
26185;PMS7003;20067;48.764;9.176;2023-12-22T06:17:40;5.75;5.75;0.00
26185;PMS7003;20067;48.764;9.176;2023-12-22T06:20:05;5.25;5.25;0.25
26185;PMS7003;20067;48.764;9.176;2023-12-22T06:22:32;6.00;6.00;0.00
26185;PMS7003;20067;48.764;9.176;2023-12-22T06:24:57;7.50;6.00;1.00
26185;PMS7003;20067;48.764;9.176;2023-12-22T06:27:23;7.00;7.00;0.00
26185;PMS7003;20067;48.764;9.176;2023-12-22T06:29:50;8.00;8.00;1.00
26185;PMS7003;20067;48.764;9.176;2023-12-22T06:32:15;6.00;6.00;0.00
26185;PMS7003;20067;48.764;9.176;2023-12-22T06:34:42;6.50;6.50;1.00
26185;PMS7003;20067;48.764;9.176;2023-12-22T06:37:07;8.00;6.00;0.00
26185;PMS7003;20067;48.764;9.176;2023-12-22T06:39:33;6.00;6.00;0.00
26185;PMS7003;20067;48.764;9.176;2023-12-22T06:41:59;8.00;8.00;1.00
26185;PMS7003;20067;48.764;9.176;2023-12-22T06:44:24;8.00;8.00;0.00
26185;PMS7003;20067;48.764;9.176;2023-12-22T06:46:51;5.75;5.50;0.00
26185;PMS7003;20067;48.764;9.176;2023-12-22T06:49:17;8.00;8.00;0.00
26185;PMS7003;20067;48.764;9.176;2023-12-22T06:51:43;7.50;7.50;0.00
26185;PMS7003;20067;48.764;9.176;2023-12-22T06:54:08;7.50;6.00;0.00
26185;PMS7003;20067;48.764;9.176;2023-12-22T06:56:34;8.00;8.00;0.00
26185;PMS7003;20067;48.764;9.176;2023-12-22T06:59:00;7.50;7.50;0.00
26185;PMS7003;20067;48.764;9.176;2023-12-22T07:01:28;6.00;6.00;0.00
26185;PMS7003;20067;48.764;9.176;2023-12-22T07:03:59;5.00;5.00;0.00
26185;PMS7003;20067;48.764;9.176;2023-12-22T07:06:27;7.50;7.50;0.00
26185;PMS7003;20067;48.764;9.176;2023-12-22T07:11:42;7.00;7.00;0.00
26185;PMS7003;20067;48.764;9.176;2023-12-22T07:14:10;5.00;5.00;0.50
26185;PMS7003;20067;48.764;9.176;2023-12-22T07:16:36;5.00;5.00;0.00
26185;PMS7003;20067;48.764;9.176;2023-12-22T07:19:07;6.00;6.00;1.00
26185;PMS7003;20067;48.764;9.176;2023-12-22T07:21:33;9.00;9.00;0.00
26185;PMS7003;20067;48.764;9.176;2023-12-22T07:24:02;6.50;5.00;0.00
26185;PMS7003;20067;48.764;9.176;2023-12-22T07:26:28;9.50;6.50;1.00
26185;PMS7003;20067;48.764;9.176;2023-12-22T07:28:55;5.00;5.00;0.00
26185;PMS7003;20067;48.764;9.176;2023-12-22T07:31:24;11.00;8.00;0.00
26185;PMS7003;20067;48.764;9.176;2023-12-22T07:33:50;5.00;5.00;0.00
26185;PMS7003;20067;48.764;9.176;2023-12-22T07:36:18;5.75;5.75;0.75
26185;PMS7003;20067;48.764;9.176;2023-12-22T07:38:44;8.00;8.00;0.00
26185;PMS7003;20067;48.764;9.176;2023-12-22T07:41:10;6.50;6.50;0.00
26185;PMS7003;20067;48.764;9.176;2023-12-22T07:43:35;10.00;10.00;0.75
26185;PMS7003;20067;48.764;9.176;2023-12-22T07:46:01;7.50;5.50;0.00
26185;PMS7003;20067;48.764;9.176;2023-12-22T07:48:27;6.00;6.00;0.00
26185;PMS7003;20067;48.764;9.176;2023-12-22T07:50:53;5.75;5.75;0.00
26185;PMS7003;20067;48.764;9.176;2023-12-22T07:53:19;6.25;6.25;0.00
26185;PMS7003;20067;48.764;9.176;2023-12-22T07:55:46;6.00;6.00;0.00
26185;PMS7003;20067;48.764;9.176;2023-12-22T07:58:12;5.75;5.75;0.00
26185;PMS7003;20067;48.764;9.176;2023-12-22T08:00:38;5.75;5.75;0.00
26185;PMS7003;20067;48.764;9.176;2023-12-22T08:03:04;11.00;10.00;3.00
26185;PMS7003;20067;48.764;9.176;2023-12-22T08:05:31;8.00;6.00;0.00
26185;PMS7003;20067;48.764;9.176;2023-12-22T08:07:58;5.50;5.50;0.00
26185;PMS7003;20067;48.764;9.176;2023-12-22T08:10:24;9.50;9.50;1.00
26185;PMS7003;20067;48.764;9.176;2023-12-22T08:12:50;8.00;8.00;0.00
26185;PMS7003;20067;48.764;9.176;2023-12-22T08:15:16;5.75;5.75;0.00
26185;PMS7003;20067;48.764;9.176;2023-12-22T08:17:50;7.75;6.25;0.00
26185;PMS7003;20067;48.764;9.176;2023-12-22T08:20:17;7.25;7.25;0.00
26185;PMS7003;20067;48.764;9.176;2023-12-22T08:22:46;8.00;8.00;1.00
26185;PMS7003;20067;48.764;9.176;2023-12-22T08:25:13;8.00;7.50;0.00
26185;PMS7003;20067;48.764;9.176;2023-12-22T08:27:40;9.00;8.00;0.00
26185;PMS7003;20067;48.764;9.176;2023-12-22T08:30:26;10.00;10.00;1.50
26185;PMS7003;20067;48.764;9.176;2023-12-22T08:32:52;14.00;12.00;4.00
26185;PMS7003;20067;48.764;9.176;2023-12-22T08:35:18;10.00;10.00;1.00
26185;PMS7003;20067;48.764;9.176;2023-12-22T08:37:45;12.00;12.00;3.00
26185;PMS7003;20067;48.764;9.176;2023-12-22T08:40:13;15.75;12.00;5.00
26185;PMS7003;20067;48.764;9.176;2023-12-22T08:42:38;13.00;10.00;3.00
26185;PMS7003;20067;48.764;9.176;2023-12-22T08:45:04;8.00;8.00;1.00
26185;PMS7003;20067;48.764;9.176;2023-12-22T08:47:31;8.00;7.50;0.00
26185;PMS7003;20067;48.764;9.176;2023-12-22T08:49:58;9.00;9.00;1.00
26185;PMS7003;20067;48.764;9.176;2023-12-22T08:52:23;10.00;10.00;3.50
26185;PMS7003;20067;48.764;9.176;2023-12-22T08:54:50;10.00;8.00;1.00
26185;PMS7003;20067;48.764;9.176;2023-12-22T08:57:16;6.75;6.75;2.00
26185;PMS7003;20067;48.764;9.176;2023-12-22T08:59:41;6.00;6.00;3.00
26185;PMS7003;20067;48.764;9.176;2023-12-22T09:02:07;7.75;6.25;1.00
26185;PMS7003;20067;48.764;9.176;2023-12-22T09:04:33;7.50;7.50;3.00
26185;PMS7003;20067;48.764;9.176;2023-12-22T09:07:02;10.00;8.00;2.50
26185;PMS7003;20067;48.764;9.176;2023-12-22T09:09:30;6.00;6.00;1.00
26185;PMS7003;20067;48.764;9.176;2023-12-22T09:11:56;7.50;6.00;1.00
26185;PMS7003;20067;48.764;9.176;2023-12-22T09:14:22;8.00;8.00;3.00
26185;PMS7003;20067;48.764;9.176;2023-12-22T09:16:48;9.00;8.00;2.50
26185;PMS7003;20067;48.764;9.176;2023-12-22T09:19:13;10.50;7.50;3.00
26185;PMS7003;20067;48.764;9.176;2023-12-22T09:21:39;9.50;8.00;3.00
26185;PMS7003;20067;48.764;9.176;2023-12-22T09:24:05;9.00;8.00;1.00
26185;PMS7003;20067;48.764;9.176;2023-12-22T09:26:32;8.00;8.00;1.00
26185;PMS7003;20067;48.764;9.176;2023-12-22T09:28:58;10.00;8.00;1.00
26185;PMS7003;20067;48.764;9.176;2023-12-22T09:31:27;10.00;8.50;1.00
26185;PMS7003;20067;48.764;9.176;2023-12-22T09:33:55;7.50;6.00;0.50
26185;PMS7003;20067;48.764;9.176;2023-12-22T09:36:22;10.00;8.00;1.00
26185;PMS7003;20067;48.764;9.176;2023-12-22T09:38:47;8.50;8.50;1.50
26185;PMS7003;20067;48.764;9.176;2023-12-22T09:41:13;8.50;8.50;1.00
26185;PMS7003;20067;48.764;9.176;2023-12-22T09:43:40;11.50;8.50;3.00
26185;PMS7003;20067;48.764;9.176;2023-12-22T09:46:15;6.00;6.00;1.00
26185;PMS7003;20067;48.764;9.176;2023-12-22T09:48:49;6.50;5.75;1.00
26185;PMS7003;20067;48.764;9.176;2023-12-22T09:51:22;6.00;6.00;1.50
26185;PMS7003;20067;48.764;9.176;2023-12-22T09:53:49;5.50;5.00;0.50
26185;PMS7003;20067;48.764;9.176;2023-12-22T09:56:22;7.00;6.00;1.00
26185;PMS7003;20067;48.764;9.176;2023-12-22T09:58:49;5.00;5.00;0.00
26185;PMS7003;20067;48.764;9.176;2023-12-22T10:01:21;4.50;4.25;0.25
26185;PMS7003;20067;48.764;9.176;2023-12-22T10:03:49;6.25;5.25;0.00
26185;PMS7003;20067;48.764;9.176;2023-12-22T10:06:16;5.25;4.25;0.00
26185;PMS7003;20067;48.764;9.176;2023-12-22T10:08:43;7.00;6.00;1.00
26185;PMS7003;20067;48.764;9.176;2023-12-22T10:11:11;6.50;6.00;0.00
26185;PMS7003;20067;48.764;9.176;2023-12-22T10:13:42;6.00;4.00;0.00
26185;PMS7003;20067;48.764;9.176;2023-12-22T10:16:10;5.75;4.00;1.00
26185;PMS7003;20067;48.764;9.176;2023-12-22T10:18:36;6.50;6.00;2.00
26185;PMS7003;20067;48.764;9.176;2023-12-22T10:21:03;4.00;4.00;0.25
26185;PMS7003;20067;48.764;9.176;2023-12-22T10:23:29;8.25;8.25;1.50
26185;PMS7003;20067;48.764;9.176;2023-12-22T10:25:58;9.00;7.00;1.50
26185;PMS7003;20067;48.764;9.176;2023-12-22T10:28:24;11.00;8.00;2.00
26185;PMS7003;20067;48.764;9.176;2023-12-22T10:30:53;5.25;5.25;1.00
26185;PMS7003;20067;48.764;9.176;2023-12-22T10:33:23;6.50;6.00;1.00
26185;PMS7003;20067;48.764;9.176;2023-12-22T10:35:53;7.00;7.00;1.50
26185;PMS7003;20067;48.764;9.176;2023-12-22T10:38:20;8.50;8.00;2.50
26185;PMS7003;20067;48.764;9.176;2023-12-22T10:40:47;6.00;6.00;1.00
26185;PMS7003;20067;48.764;9.176;2023-12-22T10:43:15;11.50;7.50;1.00
26185;PMS7003;20067;48.764;9.176;2023-12-22T10:45:44;6.00;6.00;1.00
26185;PMS7003;20067;48.764;9.176;2023-12-22T10:48:10;5.50;5.50;1.00
26185;PMS7003;20067;48.764;9.176;2023-12-22T10:50:38;7.00;5.00;0.50
26185;PMS7003;20067;48.764;9.176;2023-12-22T10:53:06;4.00;4.00;0.00
26185;PMS7003;20067;48.764;9.176;2023-12-22T10:55:35;3.50;3.50;0.00
26185;PMS7003;20067;48.764;9.176;2023-12-22T10:58:05;7.00;3.00;0.00
26185;PMS7003;20067;48.764;9.176;2023-12-22T11:00:32;6.00;3.75;0.00
26185;PMS7003;20067;48.764;9.176;2023-12-22T11:03:07;8.00;4.00;0.00
26185;PMS7003;20067;48.764;9.176;2023-12-22T11:05:35;5.25;3.25;0.25
26185;PMS7003;20067;48.764;9.176;2023-12-22T11:08:04;3.00;3.00;0.00
26185;PMS7003;20067;48.764;9.176;2023-12-22T11:10:33;4.00;4.00;0.00
26185;PMS7003;20067;48.764;9.176;2023-12-22T11:13:06;3.00;3.00;0.00
26185;PMS7003;20067;48.764;9.176;2023-12-22T11:15:35;3.00;3.00;0.00
26185;PMS7003;20067;48.764;9.176;2023-12-22T11:18:03;6.50;4.00;0.00
26185;PMS7003;20067;48.764;9.176;2023-12-22T11:20:30;7.00;3.25;0.00
26185;PMS7003;20067;48.764;9.176;2023-12-22T11:23:01;3.00;3.00;0.00
26185;PMS7003;20067;48.764;9.176;2023-12-22T11:25:32;4.00;4.00;0.00
26185;PMS7003;20067;48.764;9.176;2023-12-22T11:28:02;5.25;5.25;0.00
26185;PMS7003;20067;48.764;9.176;2023-12-22T11:30:32;3.00;3.00;0.00
26185;PMS7003;20067;48.764;9.176;2023-12-22T11:33:01;4.75;4.75;0.00
26185;PMS7003;20067;48.764;9.176;2023-12-22T11:35:29;6.00;3.75;0.00
26185;PMS7003;20067;48.764;9.176;2023-12-22T11:37:55;4.00;4.00;0.00
26185;PMS7003;20067;48.764;9.176;2023-12-22T11:40:25;4.00;4.00;0.50
26185;PMS7003;20067;48.764;9.176;2023-12-22T11:42:51;4.00;3.00;0.00
26185;PMS7003;20067;48.764;9.176;2023-12-22T11:45:18;5.75;5.00;0.00
26185;PMS7003;20067;48.764;9.176;2023-12-22T11:47:48;5.25;5.25;1.00
26185;PMS7003;20067;48.764;9.176;2023-12-22T11:50:20;4.00;4.00;0.75
26185;PMS7003;20067;48.764;9.176;2023-12-22T11:52:55;8.00;8.00;5.00
26185;PMS7003;20067;48.764;9.176;2023-12-22T12:01:07;20.00;20.00;16.25
26185;PMS7003;20067;48.764;9.176;2023-12-22T12:03:38;25.25;25.00;21.25
26185;PMS7003;20067;48.764;9.176;2023-12-22T12:08:39;26.75;26.75;22.25
26185;PMS7003;20067;48.764;9.176;2023-12-22T12:11:05;20.75;19.25;15.00
26185;PMS7003;20067;48.764;9.176;2023-12-22T12:13:32;19.00;19.00;14.50
26185;PMS7003;20067;48.764;9.176;2023-12-22T12:15:59;13.75;13.75;10.00
26185;PMS7003;20067;48.764;9.176;2023-12-22T12:18:29;11.00;11.00;8.00
26185;PMS7003;20067;48.764;9.176;2023-12-22T12:20:55;16.50;16.50;12.50
26185;PMS7003;20067;48.764;9.176;2023-12-22T12:23:24;15.50;15.50;11.50
26185;PMS7003;20067;48.764;9.176;2023-12-22T12:25:51;16.00;16.00;12.50
26185;PMS7003;20067;48.764;9.176;2023-12-22T12:28:18;12.00;12.00;8.25
26185;PMS7003;20067;48.764;9.176;2023-12-22T12:30:56;13.00;12.00;8.25
26185;PMS7003;20067;48.764;9.176;2023-12-22T12:33:24;13.25;13.25;9.75
26185;PMS7003;20067;48.764;9.176;2023-12-22T12:35:50;15.50;15.50;12.00
26185;PMS7003;20067;48.764;9.176;2023-12-22T12:38:21;17.50;17.50;13.00
26185;PMS7003;20067;48.764;9.176;2023-12-22T12:40:50;21.50;19.50;14.75
26185;PMS7003;20067;48.764;9.176;2023-12-22T12:43:17;18.50;18.50;14.00
26185;PMS7003;20067;48.764;9.176;2023-12-22T12:45:43;18.75;18.75;14.25
26185;PMS7003;20067;48.764;9.176;2023-12-22T12:48:09;22.50;19.50;15.25
26185;PMS7003;20067;48.764;9.176;2023-12-22T12:50:35;18.00;18.00;14.25
26185;PMS7003;20067;48.764;9.176;2023-12-22T12:53:01;24.00;24.00;20.75
26185;PMS7003;20067;48.764;9.176;2023-12-22T12:55:27;32.00;32.00;28.00
26185;PMS7003;20067;48.764;9.176;2023-12-22T12:57:54;22.75;22.75;19.50
26185;PMS7003;20067;48.764;9.176;2023-12-22T13:00:31;21.00;21.00;18.00
26185;PMS7003;20067;48.764;9.176;2023-12-22T13:03:01;19.00;19.00;16.00
26185;PMS7003;20067;48.764;9.176;2023-12-22T13:05:28;22.00;22.00;17.00
26185;PMS7003;20067;48.764;9.176;2023-12-22T13:08:05;22.75;22.75;18.50
26185;PMS7003;20067;48.764;9.176;2023-12-22T13:10:33;23.00;23.00;18.75
26185;PMS7003;20067;48.764;9.176;2023-12-22T13:12:58;24.25;24.25;19.75
26185;PMS7003;20067;48.764;9.176;2023-12-22T13:15:24;24.50;24.50;21.25
26185;PMS7003;20067;48.764;9.176;2023-12-22T13:17:50;26.00;26.00;22.00
26185;PMS7003;20067;48.764;9.176;2023-12-22T13:20:16;24.50;24.50;20.00
26185;PMS7003;20067;48.764;9.176;2023-12-22T13:22:42;25.50;22.75;18.75
26185;PMS7003;20067;48.764;9.176;2023-12-22T13:25:09;23.75;23.75;20.25
26185;PMS7003;20067;48.764;9.176;2023-12-22T13:27:47;22.50;22.50;19.00
26185;PMS7003;20067;48.764;9.176;2023-12-22T13:30:14;22.00;22.00;18.50
26185;PMS7003;20067;48.764;9.176;2023-12-22T13:32:40;21.50;21.50;17.75
26185;PMS7003;20067;48.764;9.176;2023-12-22T13:35:06;22.25;22.25;18.50
26185;PMS7003;20067;48.764;9.176;2023-12-22T13:37:32;20.75;20.75;17.00
26185;PMS7003;20067;48.764;9.176;2023-12-22T13:39:58;16.75;16.75;13.50
26185;PMS7003;20067;48.764;9.176;2023-12-22T13:42:24;14.25;14.25;11.00
26185;PMS7003;20067;48.764;9.176;2023-12-22T13:44:50;17.25;17.25;13.75
26185;PMS7003;20067;48.764;9.176;2023-12-22T13:47:20;13.00;13.00;9.00
26185;PMS7003;20067;48.764;9.176;2023-12-22T13:49:46;15.00;15.00;11.00
26185;PMS7003;20067;48.764;9.176;2023-12-22T13:52:30;12.75;12.75;9.00
26185;PMS7003;20067;48.764;9.176;2023-12-22T13:55:12;14.00;14.00;11.00
26185;PMS7003;20067;48.764;9.176;2023-12-22T13:57:39;11.50;11.50;8.25
26185;PMS7003;20067;48.764;9.176;2023-12-22T14:00:27;11.75;11.75;6.75
26185;PMS7003;20067;48.764;9.176;2023-12-22T14:02:55;11.00;11.00;6.25
26185;PMS7003;20067;48.764;9.176;2023-12-22T14:05:21;6.75;6.75;3.75
26185;PMS7003;20067;48.764;9.176;2023-12-22T14:07:47;8.50;8.50;5.50
26185;PMS7003;20067;48.764;9.176;2023-12-22T14:10:13;9.50;9.00;6.00
26185;PMS7003;20067;48.764;9.176;2023-12-22T14:12:39;7.50;7.00;3.25
26185;PMS7003;20067;48.764;9.176;2023-12-22T14:17:31;8.50;8.50;4.50
26185;PMS7003;20067;48.764;9.176;2023-12-22T14:19:57;8.75;8.75;5.00
26185;PMS7003;20067;48.764;9.176;2023-12-22T14:22:23;8.00;8.00;4.00
26185;PMS7003;20067;48.764;9.176;2023-12-22T14:24:48;9.00;9.00;6.00
26185;PMS7003;20067;48.764;9.176;2023-12-22T14:27:14;11.00;9.00;6.00